sensor_id;sensor_type;location;lat;lon;timestamp;temperature;humidity
33328;DHT22;19692;52.998;9.116;2022-10-16T00:01:08;12.40;99.90
33328;DHT22;19692;52.998;9.116;2022-10-16T00:03:36;12.40;99.90
33328;DHT22;19692;52.998;9.116;2022-10-16T00:06:03;12.30;99.90
33328;DHT22;19692;52.998;9.116;2022-10-16T00:08:30;12.40;99.90
33328;DHT22;19692;52.998;9.116;2022-10-16T00:11:25;12.30;99.90
33328;DHT22;19692;52.998;9.116;2022-10-16T00:13:56;12.30;99.90
33328;DHT22;19692;52.998;9.116;2022-10-16T00:16:23;12.30;99.90
33328;DHT22;19692;52.998;9.116;2022-10-16T00:18:50;12.30;99.90
33328;DHT22;19692;52.998;9.116;2022-10-16T00:21:19;12.20;99.90
33328;DHT22;19692;52.998;9.116;2022-10-16T00:24:08;12.20;99.90
33328;DHT22;19692;52.998;9.116;2022-10-16T00:26:35;12.20;99.90
33328;DHT22;19692;52.998;9.116;2022-10-16T00:29:02;12.20;99.90
33328;DHT22;19692;52.998;9.116;2022-10-16T00:31:28;12.20;99.90
33328;DHT22;19692;52.998;9.116;2022-10-16T00:33:54;12.20;99.90
33328;DHT22;19692;52.998;9.116;2022-10-16T00:36:22;12.20;99.90
33328;DHT22;19692;52.998;9.116;2022-10-16T00:38:54;12.20;99.90
33328;DHT22;19692;52.998;9.116;2022-10-16T00:41:23;12.20;99.90
33328;DHT22;19692;52.998;9.116;2022-10-16T00:43:58;12.20;99.90
33328;DHT22;19692;52.998;9.116;2022-10-16T00:46:38;12.20;99.90
33328;DHT22;19692;52.998;9.116;2022-10-16T00:49:11;12.10;99.90
33328;DHT22;19692;52.998;9.116;2022-10-16T00:51:50;12.10;99.90
33328;DHT22;19692;52.998;9.116;2022-10-16T00:54:21;12.10;99.90
33328;DHT22;19692;52.998;9.116;2022-10-16T00:56:49;12.20;99.90
33328;DHT22;19692;52.998;9.116;2022-10-16T00:59:34;12.10;99.90
33328;DHT22;19692;52.998;9.116;2022-10-16T01:02:03;12.10;99.90
33328;DHT22;19692;52.998;9.116;2022-10-16T01:04:35;12.20;99.90
33328;DHT22;19692;52.998;9.116;2022-10-16T01:07:12;12.20;99.90
33328;DHT22;19692;52.998;9.116;2022-10-16T01:10:18;12.30;99.90
33328;DHT22;19692;52.998;9.116;2022-10-16T01:13:07;12.20;99.90
33328;DHT22;19692;52.998;9.116;2022-10-16T01:21:21;12.20;99.90
33328;DHT22;19692;52.998;9.116;2022-10-16T01:24:03;12.20;99.90
33328;DHT22;19692;52.998;9.116;2022-10-16T01:29:21;12.20;99.90
33328;DHT22;19692;52.998;9.116;2022-10-16T01:31:56;12.20;99.90
33328;DHT22;19692;52.998;9.116;2022-10-16T01:34:38;12.20;99.90
33328;DHT22;19692;52.998;9.116;2022-10-16T01:37:14;12.20;99.90
33328;DHT22;19692;52.998;9.116;2022-10-16T01:39:45;12.10;99.90
33328;DHT22;19692;52.998;9.116;2022-10-16T01:42:18;12.10;99.90
33328;DHT22;19692;52.998;9.116;2022-10-16T01:44:48;12.10;99.90
33328;DHT22;19692;52.998;9.116;2022-10-16T01:47:17;12.10;99.90
33328;DHT22;19692;52.998;9.116;2022-10-16T01:49:45;12.10;99.90
33328;DHT22;19692;52.998;9.116;2022-10-16T01:52:15;12.10;99.90
33328;DHT22;19692;52.998;9.116;2022-10-16T01:54:46;12.10;99.90
33328;DHT22;19692;52.998;9.116;2022-10-16T01:57:14;12.00;99.90
33328;DHT22;19692;52.998;9.116;2022-10-16T01:59:44;12.00;99.90
33328;DHT22;19692;52.998;9.116;2022-10-16T02:02:14;12.00;99.90
33328;DHT22;19692;52.998;9.116;2022-10-16T02:04:45;11.90;99.90
33328;DHT22;19692;52.998;9.116;2022-10-16T02:07:13;11.90;99.90
33328;DHT22;19692;52.998;9.116;2022-10-16T02:09:39;11.90;99.90
33328;DHT22;19692;52.998;9.116;2022-10-16T02:12:13;11.90;99.90
33328;DHT22;19692;52.998;9.116;2022-10-16T02:14:41;11.80;99.90
33328;DHT22;19692;52.998;9.116;2022-10-16T02:17:16;11.80;99.90
33328;DHT22;19692;52.998;9.116;2022-10-16T02:19:44;11.80;99.90
33328;DHT22;19692;52.998;9.116;2022-10-16T02:22:19;11.80;99.90
33328;DHT22;19692;52.998;9.116;2022-10-16T02:24:54;11.70;99.90
33328;DHT22;19692;52.998;9.116;2022-10-16T02:30:21;11.70;99.90
33328;DHT22;19692;52.998;9.116;2022-10-16T02:32:52;11.60;99.90
33328;DHT22;19692;52.998;9.116;2022-10-16T02:35:20;11.60;99.90
33328;DHT22;19692;52.998;9.116;2022-10-16T02:37:48;11.60;99.90
33328;DHT22;19692;52.998;9.116;2022-10-16T02:40:14;11.50;99.90
33328;DHT22;19692;52.998;9.116;2022-10-16T02:42:41;11.50;99.90
33328;DHT22;19692;52.998;9.116;2022-10-16T02:45:09;11.60;99.90
33328;DHT22;19692;52.998;9.116;2022-10-16T02:47:35;11.50;99.90
33328;DHT22;19692;52.998;9.116;2022-10-16T02:50:01;11.50;99.90
33328;DHT22;19692;52.998;9.116;2022-10-16T02:52:26;11.50;99.90
33328;DHT22;19692;52.998;9.116;2022-10-16T02:54:52;11.50;99.90
33328;DHT22;19692;52.998;9.116;2022-10-16T02:57:18;11.50;99.90
33328;DHT22;19692;52.998;9.116;2022-10-16T02:59:44;11.50;99.90
33328;DHT22;19692;52.998;9.116;2022-10-16T03:02:10;11.50;99.90
33328;DHT22;19692;52.998;9.116;2022-10-16T03:04:36;11.50;99.90
33328;DHT22;19692;52.998;9.116;2022-10-16T03:07:03;11.50;99.90
33328;DHT22;19692;52.998;9.116;2022-10-16T03:09:29;11.50;99.90
33328;DHT22;19692;52.998;9.116;2022-10-16T03:11:55;11.50;99.90
33328;DHT22;19692;52.998;9.116;2022-10-16T03:14:21;11.60;99.90
33328;DHT22;19692;52.998;9.116;2022-10-16T03:16:46;11.60;99.90
33328;DHT22;19692;52.998;9.116;2022-10-16T03:19:12;11.60;99.90
33328;DHT22;19692;52.998;9.116;2022-10-16T03:21:38;11.60;99.90
33328;DHT22;19692;52.998;9.116;2022-10-16T03:24:04;11.60;99.90
33328;DHT22;19692;52.998;9.116;2022-10-16T03:26:30;11.60;99.90
33328;DHT22;19692;52.998;9.116;2022-10-16T03:28:56;11.60;99.90
33328;DHT22;19692;52.998;9.116;2022-10-16T03:31:21;11.60;99.90
33328;DHT22;19692;52.998;9.116;2022-10-16T03:33:47;11.70;99.90
33328;DHT22;19692;52.998;9.116;2022-10-16T03:36:13;11.70;99.90
33328;DHT22;19692;52.998;9.116;2022-10-16T03:38:39;11.70;99.90
33328;DHT22;19692;52.998;9.116;2022-10-16T03:41:05;11.70;99.90
33328;DHT22;19692;52.998;9.116;2022-10-16T03:43:33;11.80;99.90
33328;DHT22;19692;52.998;9.116;2022-10-16T03:45:58;11.80;99.90
33328;DHT22;19692;52.998;9.116;2022-10-16T03:48:24;11.90;99.90
33328;DHT22;19692;52.998;9.116;2022-10-16T03:50:50;11.90;99.90
33328;DHT22;19692;52.998;9.116;2022-10-16T03:53:17;11.90;99.90
33328;DHT22;19692;52.998;9.116;2022-10-16T03:55:43;11.90;99.90
33328;DHT22;19692;52.998;9.116;2022-10-16T03:58:10;11.90;99.90
33328;DHT22;19692;52.998;9.116;2022-10-16T04:00:43;11.90;99.90
33328;DHT22;19692;52.998;9.116;2022-10-16T04:03:09;11.90;99.90
33328;DHT22;19692;52.998;9.116;2022-10-16T04:05:35;11.90;99.90
33328;DHT22;19692;52.998;9.116;2022-10-16T04:08:01;11.90;99.90
33328;DHT22;19692;52.998;9.116;2022-10-16T04:10:27;12.00;99.90
33328;DHT22;19692;52.998;9.116;2022-10-16T04:12:53;12.00;99.90
33328;DHT22;19692;52.998;9.116;2022-10-16T04:15:22;12.00;99.90
33328;DHT22;19692;52.998;9.116;2022-10-16T04:17:48;12.00;99.90
33328;DHT22;19692;52.998;9.116;2022-10-16T04:20:14;12.00;99.90
33328;DHT22;19692;52.998;9.116;2022-10-16T04:22:40;12.00;99.90
33328;DHT22;19692;52.998;9.116;2022-10-16T04:25:05;12.10;99.90
33328;DHT22;19692;52.998;9.116;2022-10-16T04:27:32;12.20;99.90
33328;DHT22;19692;52.998;9.116;2022-10-16T04:29:59;12.20;99.90
33328;DHT22;19692;52.998;9.116;2022-10-16T04:32:26;12.20;99.90
33328;DHT22;19692;52.998;9.116;2022-10-16T04:34:52;12.30;99.90
33328;DHT22;19692;52.998;9.116;2022-10-16T04:37:18;12.30;99.90
33328;DHT22;19692;52.998;9.116;2022-10-16T04:39:44;12.20;99.90
33328;DHT22;19692;52.998;9.116;2022-10-16T04:42:10;12.30;99.90
33328;DHT22;19692;52.998;9.116;2022-10-16T04:44:36;12.20;99.90
33328;DHT22;19692;52.998;9.116;2022-10-16T04:47:02;12.20;99.90
33328;DHT22;19692;52.998;9.116;2022-10-16T04:49:28;12.20;99.90
33328;DHT22;19692;52.998;9.116;2022-10-16T04:51:53;12.10;99.90
33328;DHT22;19692;52.998;9.116;2022-10-16T04:54:19;12.20;99.90
33328;DHT22;19692;52.998;9.116;2022-10-16T04:56:45;12.20;99.90
33328;DHT22;19692;52.998;9.116;2022-10-16T04:59:16;12.20;99.90
33328;DHT22;19692;52.998;9.116;2022-10-16T05:01:42;12.20;99.90
33328;DHT22;19692;52.998;9.116;2022-10-16T05:04:09;12.20;99.90
33328;DHT22;19692;52.998;9.116;2022-10-16T05:06:35;12.20;99.90
33328;DHT22;19692;52.998;9.116;2022-10-16T05:09:02;12.20;99.90
33328;DHT22;19692;52.998;9.116;2022-10-16T05:11:28;12.20;99.90
33328;DHT22;19692;52.998;9.116;2022-10-16T05:13:53;12.20;99.90
33328;DHT22;19692;52.998;9.116;2022-10-16T05:16:19;12.20;99.90
33328;DHT22;19692;52.998;9.116;2022-10-16T05:18:45;12.20;99.90
33328;DHT22;19692;52.998;9.116;2022-10-16T05:21:10;12.20;99.90
33328;DHT22;19692;52.998;9.116;2022-10-16T05:23:36;12.20;99.90
33328;DHT22;19692;52.998;9.116;2022-10-16T05:26:02;12.20;99.90
33328;DHT22;19692;52.998;9.116;2022-10-16T05:28:29;12.10;99.90
33328;DHT22;19692;52.998;9.116;2022-10-16T05:30:56;12.20;99.90
33328;DHT22;19692;52.998;9.116;2022-10-16T05:33:24;12.10;99.90
33328;DHT22;19692;52.998;9.116;2022-10-16T05:35:51;12.10;99.90
33328;DHT22;19692;52.998;9.116;2022-10-16T05:38:17;12.10;99.90
33328;DHT22;19692;52.998;9.116;2022-10-16T05:40:49;12.20;99.90
33328;DHT22;19692;52.998;9.116;2022-10-16T05:43:16;12.20;99.90
33328;DHT22;19692;52.998;9.116;2022-10-16T05:45:41;12.20;99.90
33328;DHT22;19692;52.998;9.116;2022-10-16T05:48:07;12.10;99.90
33328;DHT22;19692;52.998;9.116;2022-10-16T05:50:33;12.20;99.90
33328;DHT22;19692;52.998;9.116;2022-10-16T05:52:59;12.20;99.90
33328;DHT22;19692;52.998;9.116;2022-10-16T05:55:25;12.20;99.90
33328;DHT22;19692;52.998;9.116;2022-10-16T05:57:53;12.20;99.90
33328;DHT22;19692;52.998;9.116;2022-10-16T06:00:19;12.20;99.90
33328;DHT22;19692;52.998;9.116;2022-10-16T06:02:45;12.30;99.90
33328;DHT22;19692;52.998;9.116;2022-10-16T06:05:11;12.30;99.90
33328;DHT22;19692;52.998;9.116;2022-10-16T06:07:37;12.30;99.90
33328;DHT22;19692;52.998;9.116;2022-10-16T06:10:03;12.30;99.90
33328;DHT22;19692;52.998;9.116;2022-10-16T06:12:30;12.40;99.90
33328;DHT22;19692;52.998;9.116;2022-10-16T06:14:56;12.40;99.90
33328;DHT22;19692;52.998;9.116;2022-10-16T06:17:21;12.40;99.90
33328;DHT22;19692;52.998;9.116;2022-10-16T06:19:47;12.40;99.90
33328;DHT22;19692;52.998;9.116;2022-10-16T06:22:13;12.40;99.90
33328;DHT22;19692;52.998;9.116;2022-10-16T06:24:39;12.40;99.90
33328;DHT22;19692;52.998;9.116;2022-10-16T06:27:04;12.40;99.90
33328;DHT22;19692;52.998;9.116;2022-10-16T06:29:30;12.40;99.90
33328;DHT22;19692;52.998;9.116;2022-10-16T06:31:56;12.40;99.90
33328;DHT22;19692;52.998;9.116;2022-10-16T06:34:22;12.40;99.90
33328;DHT22;19692;52.998;9.116;2022-10-16T06:36:47;12.40;99.90
33328;DHT22;19692;52.998;9.116;2022-10-16T06:39:13;12.40;99.90
33328;DHT22;19692;52.998;9.116;2022-10-16T06:41:39;12.50;99.90
33328;DHT22;19692;52.998;9.116;2022-10-16T06:44:05;12.50;99.90
33328;DHT22;19692;52.998;9.116;2022-10-16T06:46:33;12.50;99.90
33328;DHT22;19692;52.998;9.116;2022-10-16T06:48:59;12.50;99.90
33328;DHT22;19692;52.998;9.116;2022-10-16T06:51:25;12.50;99.90
33328;DHT22;19692;52.998;9.116;2022-10-16T06:53:53;12.60;99.90
33328;DHT22;19692;52.998;9.116;2022-10-16T06:56:26;12.60;99.90
33328;DHT22;19692;52.998;9.116;2022-10-16T06:58:53;12.70;99.90
33328;DHT22;19692;52.998;9.116;2022-10-16T07:01:21;12.70;99.90
33328;DHT22;19692;52.998;9.116;2022-10-16T07:03:48;12.70;99.90
33328;DHT22;19692;52.998;9.116;2022-10-16T07:06:18;12.80;99.90
33328;DHT22;19692;52.998;9.116;2022-10-16T07:08:46;12.90;99.90
33328;DHT22;19692;52.998;9.116;2022-10-16T07:11:17;12.90;99.90
33328;DHT22;19692;52.998;9.116;2022-10-16T07:13:45;12.90;99.90
33328;DHT22;19692;52.998;9.116;2022-10-16T07:16:20;13.00;99.90
33328;DHT22;19692;52.998;9.116;2022-10-16T07:18:47;13.00;99.90
33328;DHT22;19692;52.998;9.116;2022-10-16T07:21:19;13.10;99.90
33328;DHT22;19692;52.998;9.116;2022-10-16T07:23:50;13.20;99.90
33328;DHT22;19692;52.998;9.116;2022-10-16T07:26:17;13.20;99.90
33328;DHT22;19692;52.998;9.116;2022-10-16T07:28:43;13.20;99.90
33328;DHT22;19692;52.998;9.116;2022-10-16T07:31:14;13.30;99.90
33328;DHT22;19692;52.998;9.116;2022-10-16T07:33:41;13.40;99.90
33328;DHT22;19692;52.998;9.116;2022-10-16T07:36:09;13.40;99.90
33328;DHT22;19692;52.998;9.116;2022-10-16T07:38:35;13.50;99.90
33328;DHT22;19692;52.998;9.116;2022-10-16T07:41:03;13.40;99.90
33328;DHT22;19692;52.998;9.116;2022-10-16T07:43:31;13.50;99.90
33328;DHT22;19692;52.998;9.116;2022-10-16T07:45:57;13.60;99.90
33328;DHT22;19692;52.998;9.116;2022-10-16T07:48:26;13.70;99.90
33328;DHT22;19692;52.998;9.116;2022-10-16T07:50:56;13.80;99.90
33328;DHT22;19692;52.998;9.116;2022-10-16T07:53:22;13.90;99.90
33328;DHT22;19692;52.998;9.116;2022-10-16T07:55:49;13.90;99.90
33328;DHT22;19692;52.998;9.116;2022-10-16T07:58:15;14.00;99.90
33328;DHT22;19692;52.998;9.116;2022-10-16T08:00:41;14.10;99.90
33328;DHT22;19692;52.998;9.116;2022-10-16T08:03:08;14.10;99.90
33328;DHT22;19692;52.998;9.116;2022-10-16T08:05:34;14.10;99.90
33328;DHT22;19692;52.998;9.116;2022-10-16T08:08:01;14.10;99.90
33328;DHT22;19692;52.998;9.116;2022-10-16T08:10:28;14.20;99.90
33328;DHT22;19692;52.998;9.116;2022-10-16T08:12:55;14.20;99.90
33328;DHT22;19692;52.998;9.116;2022-10-16T08:15:21;14.20;99.90
33328;DHT22;19692;52.998;9.116;2022-10-16T08:17:58;14.20;99.90
33328;DHT22;19692;52.998;9.116;2022-10-16T08:20:29;14.30;99.90
33328;DHT22;19692;52.998;9.116;2022-10-16T08:22:56;14.30;99.90
33328;DHT22;19692;52.998;9.116;2022-10-16T08:25:23;14.30;99.90
33328;DHT22;19692;52.998;9.116;2022-10-16T08:27:50;14.40;99.90
33328;DHT22;19692;52.998;9.116;2022-10-16T08:30:19;14.40;99.90
33328;DHT22;19692;52.998;9.116;2022-10-16T08:32:46;14.50;99.90
33328;DHT22;19692;52.998;9.116;2022-10-16T08:35:13;14.60;99.90
33328;DHT22;19692;52.998;9.116;2022-10-16T08:37:41;14.70;99.90
33328;DHT22;19692;52.998;9.116;2022-10-16T08:40:22;14.90;99.90
33328;DHT22;19692;52.998;9.116;2022-10-16T08:46:21;15.20;99.90
33328;DHT22;19692;52.998;9.116;2022-10-16T08:48:59;15.20;99.90
33328;DHT22;19692;52.998;9.116;2022-10-16T08:51:37;15.20;99.90
33328;DHT22;19692;52.998;9.116;2022-10-16T08:54:08;15.30;99.90
33328;DHT22;19692;52.998;9.116;2022-10-16T08:56:40;15.50;99.90
33328;DHT22;19692;52.998;9.116;2022-10-16T08:59:10;15.60;99.90
33328;DHT22;19692;52.998;9.116;2022-10-16T09:01:41;15.60;99.90
33328;DHT22;19692;52.998;9.116;2022-10-16T09:12:58;16.00;99.90
33328;DHT22;19692;52.998;9.116;2022-10-16T09:15:44;16.30;99.90
33328;DHT22;19692;52.998;9.116;2022-10-16T09:21:28;16.40;99.90
33328;DHT22;19692;52.998;9.116;2022-10-16T09:24:16;16.60;99.90
33328;DHT22;19692;52.998;9.116;2022-10-16T09:26:44;16.80;99.90
33328;DHT22;19692;52.998;9.116;2022-10-16T09:29:22;16.90;99.90
33328;DHT22;19692;52.998;9.116;2022-10-16T09:32:12;17.00;99.90
33328;DHT22;19692;52.998;9.116;2022-10-16T09:34:54;17.30;99.90
33328;DHT22;19692;52.998;9.116;2022-10-16T09:37:31;17.60;99.90
33328;DHT22;19692;52.998;9.116;2022-10-16T09:40:25;17.40;99.90
33328;DHT22;19692;52.998;9.116;2022-10-16T09:49:21;17.60;99.90
33328;DHT22;19692;52.998;9.116;2022-10-16T09:52:03;17.60;99.90
33328;DHT22;19692;52.998;9.116;2022-10-16T09:54:53;17.90;99.90
33328;DHT22;19692;52.998;9.116;2022-10-16T09:57:23;18.20;99.90
33328;DHT22;19692;52.998;9.116;2022-10-16T09:59:57;18.10;99.90
33328;DHT22;19692;52.998;9.116;2022-10-16T10:02:37;18.30;99.90
33328;DHT22;19692;52.998;9.116;2022-10-16T10:05:24;18.50;99.90
33328;DHT22;19692;52.998;9.116;2022-10-16T10:07:59;18.20;99.90
33328;DHT22;19692;52.998;9.116;2022-10-16T10:10:39;17.90;99.90
33328;DHT22;19692;52.998;9.116;2022-10-16T10:13:21;17.80;99.90
33328;DHT22;19692;52.998;9.116;2022-10-16T10:15:52;17.60;99.90
33328;DHT22;19692;52.998;9.116;2022-10-16T10:18:20;17.30;99.90
33328;DHT22;19692;52.998;9.116;2022-10-16T10:21:00;17.30;99.90
33328;DHT22;19692;52.998;9.116;2022-10-16T10:23:28;17.40;99.90
33328;DHT22;19692;52.998;9.116;2022-10-16T10:36:48;18.70;99.90
33328;DHT22;19692;52.998;9.116;2022-10-16T10:39:31;18.90;99.90
33328;DHT22;19692;52.998;9.116;2022-10-16T10:47:51;18.50;99.90
33328;DHT22;19692;52.998;9.116;2022-10-16T10:53:37;18.00;99.90
33328;DHT22;19692;52.998;9.116;2022-10-16T11:02:22;18.00;99.90
33328;DHT22;19692;52.998;9.116;2022-10-16T11:07:54;18.20;99.90
33328;DHT22;19692;52.998;9.116;2022-10-16T11:10:27;18.10;99.90
33328;DHT22;19692;52.998;9.116;2022-10-16T11:13:20;18.10;99.90
33328;DHT22;19692;52.998;9.116;2022-10-16T11:15:52;18.60;99.90
33328;DHT22;19692;52.998;9.116;2022-10-16T11:18:24;18.80;99.90
33328;DHT22;19692;52.998;9.116;2022-10-16T11:21:08;19.00;99.90
33328;DHT22;19692;52.998;9.116;2022-10-16T11:23:59;19.50;99.90
33328;DHT22;19692;52.998;9.116;2022-10-16T11:26:34;20.00;99.90
33328;DHT22;19692;52.998;9.116;2022-10-16T11:29:03;19.30;99.90
33328;DHT22;19692;52.998;9.116;2022-10-16T11:31:41;19.30;99.90
33328;DHT22;19692;52.998;9.116;2022-10-16T11:37:01;19.50;99.90
33328;DHT22;19692;52.998;9.116;2022-10-16T11:39:31;20.00;99.90
33328;DHT22;19692;52.998;9.116;2022-10-16T11:42:22;20.00;99.90
33328;DHT22;19692;52.998;9.116;2022-10-16T11:45:27;20.10;99.90
33328;DHT22;19692;52.998;9.116;2022-10-16T11:48:12;20.00;99.90
33328;DHT22;19692;52.998;9.116;2022-10-16T11:50:55;19.70;99.90
33328;DHT22;19692;52.998;9.116;2022-10-16T11:56:23;19.50;99.90
33328;DHT22;19692;52.998;9.116;2022-10-16T11:59:10;19.70;99.90
33328;DHT22;19692;52.998;9.116;2022-10-16T12:02:09;20.10;99.90
33328;DHT22;19692;52.998;9.116;2022-10-16T12:08:10;20.70;99.90
33328;DHT22;19692;52.998;9.116;2022-10-16T12:10:37;20.60;99.90
33328;DHT22;19692;52.998;9.116;2022-10-16T12:13:35;20.90;99.90
33328;DHT22;19692;52.998;9.116;2022-10-16T12:18:32;20.90;99.90
33328;DHT22;19692;52.998;9.116;2022-10-16T12:20:59;20.70;99.90
33328;DHT22;19692;52.998;9.116;2022-10-16T12:41:05;19.90;99.90
33328;DHT22;19692;52.998;9.116;2022-10-16T13:20:58;20.00;99.90
33328;DHT22;19692;52.998;9.116;2022-10-16T13:26:49;19.30;99.90
33328;DHT22;19692;52.998;9.116;2022-10-16T13:29:31;19.50;99.90
33328;DHT22;19692;52.998;9.116;2022-10-16T13:31:59;19.50;99.90
33328;DHT22;19692;52.998;9.116;2022-10-16T13:34:26;19.80;99.90
33328;DHT22;19692;52.998;9.116;2022-10-16T13:36:53;20.10;99.90
33328;DHT22;19692;52.998;9.116;2022-10-16T13:39:24;19.70;99.90
33328;DHT22;19692;52.998;9.116;2022-10-16T13:42:06;19.10;99.90
33328;DHT22;19692;52.998;9.116;2022-10-16T13:44:40;18.70;99.90
33328;DHT22;19692;52.998;9.116;2022-10-16T13:47:26;18.60;99.90
33328;DHT22;19692;52.998;9.116;2022-10-16T13:50:05;18.70;99.90
33328;DHT22;19692;52.998;9.116;2022-10-16T13:52:35;18.80;99.90
33328;DHT22;19692;52.998;9.116;2022-10-16T13:55:01;19.30;99.90
33328;DHT22;19692;52.998;9.116;2022-10-16T13:57:26;19.70;99.90
33328;DHT22;19692;52.998;9.116;2022-10-16T13:59:52;20.30;99.90
33328;DHT22;19692;52.998;9.116;2022-10-16T14:02:45;19.90;99.90
33328;DHT22;19692;52.998;9.116;2022-10-16T14:05:16;19.70;99.90
33328;DHT22;19692;52.998;9.116;2022-10-16T14:07:42;19.40;99.90
33328;DHT22;19692;52.998;9.116;2022-10-16T14:10:28;19.20;99.90
33328;DHT22;19692;52.998;9.116;2022-10-16T14:13:01;19.30;99.90
33328;DHT22;19692;52.998;9.116;2022-10-16T14:15:30;19.70;99.90
33328;DHT22;19692;52.998;9.116;2022-10-16T14:17:58;19.80;99.90
33328;DHT22;19692;52.998;9.116;2022-10-16T14:20:26;20.00;99.90
33328;DHT22;19692;52.998;9.116;2022-10-16T14:23:18;20.40;99.90
33328;DHT22;19692;52.998;9.116;2022-10-16T14:25:56;20.30;99.90
33328;DHT22;19692;52.998;9.116;2022-10-16T14:30:05;20.10;99.90
33328;DHT22;19692;52.998;9.116;2022-10-16T14:33:18;20.20;99.90
33328;DHT22;19692;52.998;9.116;2022-10-16T14:36:16;20.30;99.90
33328;DHT22;19692;52.998;9.116;2022-10-16T14:43:16;20.40;99.90
33328;DHT22;19692;52.998;9.116;2022-10-16T14:50:22;20.40;99.90
33328;DHT22;19692;52.998;9.116;2022-10-16T15:04:09;20.60;99.90
33328;DHT22;19692;52.998;9.116;2022-10-16T15:06:38;20.40;99.90
33328;DHT22;19692;52.998;9.116;2022-10-16T15:09:07;20.50;99.90
33328;DHT22;19692;52.998;9.116;2022-10-16T15:11:34;20.40;99.90
33328;DHT22;19692;52.998;9.116;2022-10-16T15:14:02;20.30;99.90
33328;DHT22;19692;52.998;9.116;2022-10-16T15:16:30;20.30;99.90
33328;DHT22;19692;52.998;9.116;2022-10-16T15:18:59;20.40;99.90
33328;DHT22;19692;52.998;9.116;2022-10-16T15:21:28;20.40;99.90
33328;DHT22;19692;52.998;9.116;2022-10-16T15:23:56;20.60;99.90
33328;DHT22;19692;52.998;9.116;2022-10-16T15:26:24;20.40;99.90
33328;DHT22;19692;52.998;9.116;2022-10-16T15:28:52;20.20;99.90
33328;DHT22;19692;52.998;9.116;2022-10-16T15:31:18;19.90;99.90
33328;DHT22;19692;52.998;9.116;2022-10-16T15:33:45;19.90;99.90
33328;DHT22;19692;52.998;9.116;2022-10-16T15:36:32;19.60;99.90
33328;DHT22;19692;52.998;9.116;2022-10-16T15:41:40;19.20;99.90
33328;DHT22;19692;52.998;9.116;2022-10-16T15:44:08;19.00;99.90
33328;DHT22;19692;52.998;9.116;2022-10-16T15:46:34;18.80;99.90
33328;DHT22;19692;52.998;9.116;2022-10-16T15:49:09;18.50;99.90
33328;DHT22;19692;52.998;9.116;2022-10-16T15:51:40;18.40;99.90
33328;DHT22;19692;52.998;9.116;2022-10-16T15:54:09;18.20;99.90
33328;DHT22;19692;52.998;9.116;2022-10-16T15:56:36;18.10;99.90
33328;DHT22;19692;52.998;9.116;2022-10-16T15:59:03;18.00;99.90
33328;DHT22;19692;52.998;9.116;2022-10-16T16:01:36;17.90;99.90
33328;DHT22;19692;52.998;9.116;2022-10-16T16:04:03;17.80;99.90
33328;DHT22;19692;52.998;9.116;2022-10-16T16:06:30;17.70;99.90
33328;DHT22;19692;52.998;9.116;2022-10-16T16:08:59;17.60;99.90
33328;DHT22;19692;52.998;9.116;2022-10-16T16:11:28;17.50;99.90
33328;DHT22;19692;52.998;9.116;2022-10-16T16:14:00;17.40;99.90
33328;DHT22;19692;52.998;9.116;2022-10-16T16:16:29;17.20;99.90
33328;DHT22;19692;52.998;9.116;2022-10-16T16:19:04;17.00;99.90
33328;DHT22;19692;52.998;9.116;2022-10-16T16:21:34;16.90;99.90
33328;DHT22;19692;52.998;9.116;2022-10-16T16:24:02;16.60;99.90
33328;DHT22;19692;52.998;9.116;2022-10-16T16:26:35;16.50;99.90
33328;DHT22;19692;52.998;9.116;2022-10-16T16:29:24;16.40;99.90
33328;DHT22;19692;52.998;9.116;2022-10-16T16:31:51;16.20;99.90
33328;DHT22;19692;52.998;9.116;2022-10-16T16:34:29;15.90;99.90
33328;DHT22;19692;52.998;9.116;2022-10-16T16:36:57;15.80;99.90
33328;DHT22;19692;52.998;9.116;2022-10-16T16:39:31;15.70;99.90
33328;DHT22;19692;52.998;9.116;2022-10-16T16:42:01;15.60;99.90
33328;DHT22;19692;52.998;9.116;2022-10-16T16:44:28;15.50;99.90
33328;DHT22;19692;52.998;9.116;2022-10-16T16:47:01;15.30;99.90
33328;DHT22;19692;52.998;9.116;2022-10-16T16:49:29;15.10;99.90
33328;DHT22;19692;52.998;9.116;2022-10-16T16:51:58;15.00;99.90
33328;DHT22;19692;52.998;9.116;2022-10-16T16:54:28;14.90;99.90
33328;DHT22;19692;52.998;9.116;2022-10-16T16:56:57;14.80;99.90
33328;DHT22;19692;52.998;9.116;2022-10-16T16:59:25;14.70;99.90
33328;DHT22;19692;52.998;9.116;2022-10-16T17:01:52;14.50;99.90
33328;DHT22;19692;52.998;9.116;2022-10-16T17:04:19;14.50;99.90
33328;DHT22;19692;52.998;9.116;2022-10-16T17:06:51;14.20;99.90
33328;DHT22;19692;52.998;9.116;2022-10-16T17:09:19;14.00;99.90
33328;DHT22;19692;52.998;9.116;2022-10-16T17:11:48;13.80;99.90
33328;DHT22;19692;52.998;9.116;2022-10-16T17:14:18;13.70;99.90
33328;DHT22;19692;52.998;9.116;2022-10-16T17:16:48;13.70;99.90
33328;DHT22;19692;52.998;9.116;2022-10-16T17:19:17;13.60;99.90
33328;DHT22;19692;52.998;9.116;2022-10-16T17:21:48;13.50;99.90
33328;DHT22;19692;52.998;9.116;2022-10-16T17:24:17;13.50;99.90
33328;DHT22;19692;52.998;9.116;2022-10-16T17:26:48;13.40;99.90
33328;DHT22;19692;52.998;9.116;2022-10-16T17:29:17;13.40;99.90
33328;DHT22;19692;52.998;9.116;2022-10-16T17:31:46;13.30;99.90
33328;DHT22;19692;52.998;9.116;2022-10-16T17:34:14;13.20;99.90
33328;DHT22;19692;52.998;9.116;2022-10-16T17:36:42;13.20;99.90
33328;DHT22;19692;52.998;9.116;2022-10-16T17:39:10;13.00;99.90
33328;DHT22;19692;52.998;9.116;2022-10-16T17:41:37;12.80;99.90
33328;DHT22;19692;52.998;9.116;2022-10-16T17:44:04;12.70;99.90
33328;DHT22;19692;52.998;9.116;2022-10-16T17:46:31;12.70;99.90
33328;DHT22;19692;52.998;9.116;2022-10-16T17:48:58;12.70;99.90
33328;DHT22;19692;52.998;9.116;2022-10-16T17:51:27;12.70;99.90
33328;DHT22;19692;52.998;9.116;2022-10-16T17:53:57;12.70;99.90
33328;DHT22;19692;52.998;9.116;2022-10-16T17:56:25;13.10;99.90
33328;DHT22;19692;52.998;9.116;2022-10-16T17:58:54;12.90;99.90
33328;DHT22;19692;52.998;9.116;2022-10-16T18:01:27;12.80;99.90
33328;DHT22;19692;52.998;9.116;2022-10-16T18:04:04;12.70;99.90
33328;DHT22;19692;52.998;9.116;2022-10-16T18:06:33;12.50;99.90
33328;DHT22;19692;52.998;9.116;2022-10-16T18:08:59;12.40;99.90
33328;DHT22;19692;52.998;9.116;2022-10-16T18:11:27;12.40;99.90
33328;DHT22;19692;52.998;9.116;2022-10-16T18:13:55;12.30;99.90
33328;DHT22;19692;52.998;9.116;2022-10-16T18:16:25;12.40;99.90
33328;DHT22;19692;52.998;9.116;2022-10-16T18:18:56;12.30;99.90
33328;DHT22;19692;52.998;9.116;2022-10-16T18:21:24;12.30;99.90
33328;DHT22;19692;52.998;9.116;2022-10-16T18:23:56;12.10;99.90
33328;DHT22;19692;52.998;9.116;2022-10-16T18:26:25;12.00;99.90
33328;DHT22;19692;52.998;9.116;2022-10-16T18:28:56;11.90;99.90